createdAt,value
2023-01-08T00:03:08.749Z,1.35
2023-01-08T00:08:10.508Z,1.77
2023-01-08T00:13:12.085Z,1.70
2023-01-08T00:18:13.617Z,1.42
2023-01-08T00:23:24.141Z,1.50
2023-01-08T00:28:25.817Z,1.60
2023-01-08T00:33:27.615Z,1.77
2023-01-08T00:38:29.803Z,1.95
2023-01-08T00:43:31.448Z,1.80
2023-01-08T00:48:33.250Z,1.70
2023-01-08T00:53:35.549Z,1.20
2023-01-08T00:58:37.385Z,1.40
2023-01-08T01:03:38.951Z,1.42
2023-01-08T01:08:41.262Z,1.40
2023-01-08T01:13:42.701Z,1.80
2023-01-08T01:18:44.674Z,1.40
2023-01-08T01:23:46.396Z,1.75
2023-01-08T01:28:53.089Z,1.45
2023-01-08T01:33:55.177Z,1.60
2023-01-08T01:38:58.280Z,1.73
2023-01-08T01:44:20.931Z,1.48
2023-01-08T01:49:23.391Z,1.77
2023-01-08T01:54:25.071Z,1.95
2023-01-08T01:59:26.548Z,2.10
2023-01-08T02:04:28.519Z,1.95
2023-01-08T02:10:00.506Z,1.65
2023-01-08T02:15:10.861Z,1.88
2023-01-08T02:20:20.704Z,2.17
2023-01-08T02:25:25.201Z,2.20
2023-01-08T02:30:27.339Z,2.35
2023-01-08T02:35:52.489Z,1.80
2023-01-08T02:41:04.621Z,1.90
2023-01-08T02:46:11.611Z,2.13
2023-01-08T02:51:28.356Z,2.10
2023-01-08T02:56:37.768Z,2.38
2023-01-08T03:01:40.572Z,2.53
2023-01-08T03:06:43.080Z,1.92
2023-01-08T03:11:53.279Z,1.85
2023-01-08T03:22:20.156Z,2.72
2023-01-08T03:27:25.280Z,2.13
2023-01-08T03:32:29.520Z,1.98
2023-01-08T03:37:36.678Z,1.90
2023-01-08T03:42:41.888Z,1.77
2023-01-08T03:47:44.827Z,2.00
2023-01-08T03:52:48.845Z,2.20
2023-01-08T03:57:50.441Z,1.98
2023-01-08T04:02:52.021Z,2.05
2023-01-08T04:07:57.695Z,2.22
2023-01-08T04:12:59.340Z,2.28
2023-01-08T04:18:00.866Z,1.92
2023-01-08T04:23:02.715Z,1.73
2023-01-08T04:28:04.747Z,1.80
2023-01-08T04:33:06.392Z,1.67
2023-01-08T04:38:08.451Z,1.85
2023-01-08T04:43:10.929Z,1.80
2023-01-08T04:48:12.764Z,1.73
2023-01-08T04:53:14.444Z,1.85
2023-01-08T04:58:15.931Z,1.58
2023-01-08T05:03:17.350Z,1.50
2023-01-08T05:08:18.723Z,1.45
2023-01-08T05:13:20.336Z,1.55
2023-01-08T05:18:21.919Z,1.10
2023-01-08T05:23:23.421Z,0.95
2023-01-08T05:28:25.242Z,0.90
2023-01-08T05:33:26.880Z,0.88
2023-01-08T05:38:28.395Z,0.77
2023-01-08T05:43:30.657Z,0.80
2023-01-08T05:48:33.870Z,0.98
2023-01-08T05:53:35.345Z,0.80
2023-01-08T05:58:40.458Z,0.47
2023-01-08T06:03:42.123Z,0.82
2023-01-08T06:08:43.549Z,0.60
2023-01-08T06:13:44.976Z,0.50
2023-01-08T06:18:46.950Z,0.65
2023-01-08T06:23:57.337Z,0.57
2023-01-08T06:29:04.912Z,0.70
2023-01-08T06:34:06.760Z,0.77
2023-01-08T06:39:11.924Z,0.68
2023-01-08T06:44:13.398Z,1.17
2023-01-08T06:49:14.855Z,1.00
2023-01-08T06:54:16.329Z,0.90
2023-01-08T06:59:17.845Z,0.88
2023-01-08T07:04:19.659Z,0.70
2023-01-08T07:09:21.043Z,0.73
2023-01-08T07:14:22.579Z,1.10
2023-01-08T07:19:24.029Z,0.80
2023-01-08T07:24:25.467Z,0.65
2023-01-08T07:29:26.849Z,0.60
2023-01-08T07:34:28.181Z,0.80
2023-01-08T07:39:29.776Z,0.82
2023-01-08T07:44:31.199Z,0.93
2023-01-08T07:49:32.611Z,1.05
2023-01-08T07:54:36.613Z,0.98
2023-01-08T07:59:38.106Z,0.98
2023-01-08T08:04:39.539Z,1.02
2023-01-08T08:09:43.877Z,1.27
2023-01-08T08:14:45.358Z,1.08
2023-01-08T08:19:46.729Z,1.10
2023-01-08T08:24:48.068Z,1.92
2023-01-08T08:29:49.495Z,1.10
2023-01-08T08:34:51.034Z,4.82
2023-01-08T08:39:52.682Z,1.38
2023-01-08T08:44:54.190Z,1.48
2023-01-08T08:49:58.179Z,5.93
2023-01-08T08:55:00.301Z,1.38
2023-01-08T09:00:01.811Z,1.60
2023-01-08T09:05:03.269Z,1.35
2023-01-08T09:10:05.161Z,1.25
2023-01-08T09:15:07.122Z,1.15
2023-01-08T09:20:09.093Z,0.88
2023-01-08T09:25:10.743Z,1.25
2023-01-08T09:30:13.036Z,1.08
2023-01-08T09:35:17.207Z,1.00
2023-01-08T09:40:20.606Z,1.15
2023-01-08T09:45:28.929Z,0.90
2023-01-08T09:50:32.053Z,1.02
2023-01-08T09:55:34.358Z,0.93
2023-01-08T10:00:37.879Z,1.10
2023-01-08T10:05:39.481Z,1.63
2023-01-08T10:10:41.708Z,1.10
2023-01-08T10:15:43.350Z,2.10
2023-01-08T10:20:44.898Z,1.60
2023-01-08T10:25:50.812Z,2.05
2023-01-08T10:30:53.779Z,2.00
2023-01-08T10:36:07.932Z,1.38
2023-01-08T10:41:12.326Z,1.38
2023-01-08T10:46:22.311Z,1.90
2023-01-08T10:51:25.870Z,1.13
2023-01-08T10:56:28.580Z,1.23
2023-01-08T11:01:32.898Z,1.35
2023-01-08T11:06:42.813Z,1.00
2023-01-08T11:11:44.206Z,1.15
2023-01-08T11:16:46.885Z,1.02
2023-01-08T11:22:06.681Z,1.35
2023-01-08T11:27:30.662Z,1.20
2023-01-08T11:32:49.021Z,1.30
2023-01-08T11:37:55.475Z,1.30
2023-01-08T11:43:18.495Z,1.17
2023-01-08T11:48:40.741Z,1.15
2023-01-08T11:54:08.790Z,1.10
2023-01-08T11:59:36.651Z,1.10
2023-01-08T12:04:58.807Z,0.80
2023-01-08T12:10:20.644Z,0.98
2023-01-08T12:15:44.569Z,1.27
2023-01-08T12:21:09.366Z,1.23
2023-01-08T12:26:30.712Z,1.15
2023-01-08T12:31:38.076Z,1.00
2023-01-08T12:37:00.825Z,0.85
2023-01-08T12:42:11.623Z,0.68
2023-01-08T12:47:18.676Z,0.90
2023-01-08T12:52:29.915Z,0.95
2023-01-08T12:57:41.503Z,0.90
2023-01-08T13:03:03.809Z,1.08
2023-01-08T13:08:33.136Z,1.20
2023-01-08T13:13:38.670Z,0.87
2023-01-08T13:18:40.649Z,1.00
2023-01-08T13:23:42.178Z,0.82
2023-01-08T13:28:45.543Z,0.80
2023-01-08T13:33:50.864Z,0.30
2023-01-08T13:39:12.167Z,0.73
2023-01-08T13:44:26.612Z,0.90
2023-01-08T13:49:35.332Z,0.70
2023-01-08T13:54:43.363Z,1.10
2023-01-08T13:59:58.963Z,0.90
2023-01-08T14:05:02.529Z,0.80
2023-01-08T14:10:09.763Z,0.90
2023-01-08T14:15:21.850Z,0.70
2023-01-08T14:20:36.617Z,0.88
2023-01-08T14:25:42.675Z,0.75
2023-01-08T14:30:52.131Z,1.10
2023-01-08T14:35:54.626Z,0.70
2023-01-08T14:41:09.697Z,1.15
2023-01-08T14:46:29.733Z,0.80
2023-01-08T14:51:31.784Z,0.82
2023-01-08T14:56:38.184Z,1.00
2023-01-08T15:01:40.101Z,1.42
2023-01-08T15:06:41.595Z,1.13
2023-01-08T15:12:04.332Z,1.00
2023-01-08T15:17:20.194Z,1.33
2023-01-08T15:22:33.189Z,1.00
2023-01-08T15:27:34.960Z,0.90
2023-01-08T15:32:37.092Z,0.60
2023-01-08T15:37:39.246Z,0.93
2023-01-08T15:42:43.953Z,0.93
2023-01-08T15:47:45.432Z,1.20
2023-01-08T15:52:46.896Z,1.50
2023-01-08T15:57:48.753Z,0.95
2023-01-08T16:02:52.625Z,1.10
2023-01-08T16:07:54.274Z,1.20
2023-01-08T16:12:56.280Z,0.68
2023-01-08T16:17:58.583Z,1.00
2023-01-08T16:23:00.067Z,0.75
2023-01-08T16:28:02.152Z,0.90
2023-01-08T16:33:03.654Z,1.27
2023-01-08T16:38:05.291Z,1.40
2023-01-08T16:43:06.641Z,0.93
2023-01-08T16:48:08.060Z,1.75
2023-01-08T16:53:09.871Z,1.20
2023-01-08T16:58:11.299Z,1.20
2023-01-08T17:03:12.860Z,1.13
2023-01-08T17:08:14.830Z,1.40
2023-01-08T17:13:16.276Z,1.33
2023-01-08T17:18:17.678Z,1.83
2023-01-08T17:23:19.170Z,1.55
2023-01-08T17:28:20.939Z,1.60
2023-01-08T17:33:22.893Z,2.05
2023-01-08T17:38:27.755Z,1.50
2023-01-08T17:43:34.366Z,1.85
2023-01-08T17:48:35.862Z,1.65
2023-01-08T17:53:37.294Z,1.90
2023-01-08T17:58:38.747Z,1.45
2023-01-08T18:03:40.267Z,1.70
2023-01-08T18:08:41.768Z,1.60
2023-01-08T18:13:43.158Z,1.67
2023-01-08T18:18:44.522Z,2.05
2023-01-08T18:23:46.168Z,1.75
2023-01-08T18:28:47.939Z,2.20
2023-01-08T18:33:50.401Z,2.08
2023-01-08T18:38:51.947Z,1.55
2023-01-08T18:43:53.867Z,2.65
2023-01-08T18:48:55.540Z,2.25
2023-01-08T18:53:57.088Z,1.70
2023-01-08T18:58:58.681Z,1.75
2023-01-08T19:04:00.203Z,1.70
2023-01-08T19:09:01.988Z,2.58
2023-01-08T19:14:04.215Z,1.65
2023-01-08T19:19:05.917Z,1.88
2023-01-08T19:24:08.182Z,1.92
2023-01-08T19:29:09.636Z,2.78
2023-01-08T19:34:11.109Z,2.70
2023-01-08T19:39:12.758Z,2.90
2023-01-08T19:44:14.232Z,2.08
2023-01-08T19:49:15.882Z,2.50
2023-01-08T19:54:17.330Z,2.50
2023-01-08T19:59:18.770Z,6.35
2023-01-08T20:04:20.172Z,4.10
2023-01-08T20:09:21.727Z,3.97
2023-01-08T20:14:23.178Z,3.88
2023-01-08T20:19:25.357Z,4.50
2023-01-08T20:24:26.760Z,3.88
2023-01-08T20:29:28.289Z,2.30
2023-01-08T20:34:29.662Z,3.00
2023-01-08T20:39:31.235Z,2.50
2023-01-08T20:44:32.971Z,1.73
2023-01-08T20:49:34.387Z,1.90
2023-01-08T20:54:35.881Z,2.47
2023-01-08T20:59:37.353Z,1.80
2023-01-08T21:04:38.997Z,2.58
2023-01-08T21:09:40.521Z,2.42
2023-01-08T21:14:42.676Z,2.90
2023-01-08T21:19:44.091Z,5.50
2023-01-08T21:24:45.517Z,2.90
2023-01-08T21:29:47.199Z,2.40
2023-01-08T21:34:48.783Z,1.73
2023-01-08T21:39:52.889Z,1.70
2023-01-08T21:44:54.367Z,1.50
2023-01-08T21:49:55.798Z,1.70
2023-01-08T21:54:57.356Z,1.60
2023-01-08T21:59:59.080Z,1.40
2023-01-08T22:05:00.561Z,1.60
2023-01-08T22:10:02.252Z,1.55
2023-01-08T22:15:03.996Z,1.67
2023-01-08T22:20:06.171Z,1.30
2023-01-08T22:25:08.328Z,1.30
2023-01-08T22:30:11.926Z,1.38
2023-01-08T22:35:13.337Z,1.60
2023-01-08T22:40:14.759Z,1.30
2023-01-08T22:45:16.163Z,2.35
2023-01-08T22:50:17.558Z,1.80
2023-01-08T22:55:19.004Z,2.72
2023-01-08T23:00:20.586Z,2.17
2023-01-08T23:05:22.010Z,2.53
2023-01-08T23:10:24.045Z,1.83
2023-01-08T23:15:25.861Z,2.13
2023-01-08T23:20:27.686Z,1.90
2023-01-08T23:25:29.207Z,1.70
2023-01-08T23:30:30.838Z,1.60
2023-01-08T23:35:32.285Z,1.60
2023-01-08T23:40:36.412Z,1.30
2023-01-08T23:45:39.022Z,0.77
2023-01-08T23:50:40.495Z,0.35
2023-01-08T23:55:41.888Z,0.50
